Time;durP1;ratioP1;P1;durP2;ratioP2;P2;SDS_P1;SDS_P2;PMS_P1;PMS_P2;Temp;Humidity;BMP_temperature;BMP_pressure;BME280_temperature;BME280_humidity;BME280_pressure;Samples;Min_cycle;Max_cycle;Signal;HPM_P1;HPM_P2
2021/12/08 00:01:56;;;;;;;21.05;3.22;;;;;;;;;;5005805;28;20026;-61
2021/12/08 00:04:26;;;;;;;25.50;3.78;;;;;;;;;;5000449;28;20109;-64
2021/12/08 00:06:56;;;;;;;19.00;3.78;;;;;;;;;;5006243;28;20025;-64
2021/12/08 00:09:46;;;;;;;26.55;4.43;;;;;;;;;;5004676;28;20527;-64
2021/12/08 00:14:59;;;;;;;21.20;4.15;;;;;;;;;;4996130;28;20049;-64
2021/12/08 00:17:26;;;;;;;18.45;3.28;;;;;;;;;;5001179;28;20021;-66
2021/12/08 00:19:54;;;;;;;15.55;3.97;;;;;;;;;;5003926;28;20022;-62
2021/12/08 00:22:21;;;;;;;14.93;3.42;;;;;;;;;;5002017;28;20022;-63
2021/12/08 00:24:48;;;;;;;11.65;2.42;;;;;;;;;;4997042;28;20045;-62
2021/12/08 00:27:15;;;;;;;16.98;3.00;;;;;;;;;;4997843;28;20057;-61
2021/12/08 00:29:42;;;;;;;20.10;3.78;;;;;;;;;;4997328;28;20105;-61
2021/12/08 00:32:10;;;;;;;16.63;2.92;;;;;;;;;;5011333;28;20030;-63
2021/12/08 00:34:38;;;;;;;12.27;2.70;;;;;;;;;;5018057;28;20085;-62
2021/12/08 00:37:06;;;;;;;16.63;3.30;;;;;;;;;;5000259;28;20370;-62
2021/12/08 00:39:34;;;;;;;19.00;3.38;;;;;;;;;;4999501;28;20478;-61
2021/12/08 00:42:01;;;;;;;15.40;3.35;;;;;;;;;;5000307;28;20085;-63
2021/12/08 00:44:28;;;;;;;14.77;3.03;;;;;;;;;;5002428;28;20046;-62
2021/12/08 00:46:55;;;;;;;10.68;2.90;;;;;;;;;;5002224;28;20470;-62
2021/12/08 00:49:22;;;;;;;17.35;3.15;;;;;;;;;;5000311;28;20033;-62
2021/12/08 00:51:49;;;;;;;12.95;2.88;;;;;;;;;;4998356;28;20385;-61
2021/12/08 00:54:16;;;;;;;23.65;3.40;;;;;;;;;;5001451;28;20030;-61
2021/12/08 00:56:43;;;;;;;14.60;2.72;;;;;;;;;;5002832;28;20022;-60
2021/12/08 00:59:10;;;;;;;10.90;2.58;;;;;;;;;;4999883;28;20050;-61
2021/12/08 01:01:38;;;;;;;12.88;2.90;;;;;;;;;;5002171;28;20026;-60
2021/12/08 01:04:06;;;;;;;14.20;2.72;;;;;;;;;;4999526;28;20137;-62
2021/12/08 01:06:33;;;;;;;16.38;2.97;;;;;;;;;;5003831;28;20034;-61
2021/12/08 01:09:00;;;;;;;21.33;3.55;;;;;;;;;;5000574;28;20025;-60
2021/12/08 01:11:27;;;;;;;24.13;3.53;;;;;;;;;;4998305;28;20041;-61
2021/12/08 01:13:54;;;;;;;24.90;4.10;;;;;;;;;;4999757;28;20541;-62
2021/12/08 01:16:22;;;;;;;18.23;3.20;;;;;;;;;;5000831;28;20034;-61
2021/12/08 01:18:49;;;;;;;14.70;3.80;;;;;;;;;;5003602;28;20042;-61
2021/12/08 01:21:17;;;;;;;11.52;3.53;;;;;;;;;;4994771;28;20056;-61
2021/12/08 01:23:45;;;;;;;16.58;4.68;;;;;;;;;;5002070;28;20505;-61
2021/12/08 01:26:12;;;;;;;26.15;6.57;;;;;;;;;;4999185;28;20038;-60
2021/12/08 01:28:39;;;;;;;39.92;10.32;;;;;;;;;;4999571;28;20049;-60
2021/12/08 01:31:06;;;;;;;42.00;11.65;;;;;;;;;;4998926;28;20033;-62
2021/12/08 01:33:35;;;;;;;50.25;12.60;;;;;;;;;;5001072;28;20508;-61
2021/12/08 01:36:03;;;;;;;41.22;13.15;;;;;;;;;;5007203;28;20529;-60
2021/12/08 01:38:31;;;;;;;42.92;11.73;;;;;;;;;;5009755;28;20040;-61
2021/12/08 01:40:58;;;;;;;36.83;11.52;;;;;;;;;;5002735;28;20068;-60
2021/12/08 01:43:39;;;;;;;42.40;12.18;;;;;;;;;;5004897;28;20026;-61
2021/12/08 01:46:08;;;;;;;49.65;11.80;;;;;;;;;;5007967;28;20742;-61
2021/12/08 01:48:36;;;;;;;44.55;10.93;;;;;;;;;;5004184;28;20030;-61
2021/12/08 01:51:10;;;;;;;44.20;11.07;;;;;;;;;;5001693;28;20026;-60
2021/12/08 01:53:38;;;;;;;45.15;10.95;;;;;;;;;;5005963;28;20042;-62
2021/12/08 01:56:06;;;;;;;37.13;10.15;;;;;;;;;;5003725;28;20088;-61
2021/12/08 01:58:33;;;;;;;46.90;8.98;;;;;;;;;;5004073;28;20533;-62
2021/12/08 02:01:06;;;;;;;46.50;8.20;;;;;;;;;;5001507;28;20060;-63
2021/12/08 02:03:34;;;;;;;39.33;8.65;;;;;;;;;;5005864;28;20056;-62
2021/12/08 02:06:02;;;;;;;38.03;7.55;;;;;;;;;;5002127;28;20107;-62
2021/12/08 02:08:30;;;;;;;43.90;8.57;;;;;;;;;;5004768;28;20041;-62
2021/12/08 02:10:58;;;;;;;33.88;7.70;;;;;;;;;;5021698;28;20131;-62
2021/12/08 02:13:27;;;;;;;23.98;6.15;;;;;;;;;;4999854;28;20046;-61
2021/12/08 02:15:54;;;;;;;34.95;7.65;;;;;;;;;;5007152;28;20034;-61
2021/12/08 02:18:21;;;;;;;26.70;6.10;;;;;;;;;;5000574;28;20033;-62
2021/12/08 02:20:50;;;;;;;29.20;5.53;;;;;;;;;;5004923;28;20030;-63
2021/12/08 02:23:18;;;;;;;22.90;5.07;;;;;;;;;;5005323;28;20509;-60
2021/12/08 02:25:45;;;;;;;15.63;4.28;;;;;;;;;;5020752;28;20409;-62
2021/12/08 02:28:13;;;;;;;20.92;5.30;;;;;;;;;;5008834;28;20087;-62
2021/12/08 02:30:47;;;;;;;17.85;4.80;;;;;;;;;;5010283;28;20022;-62
2021/12/08 02:47:31;;;;;;;13.70;3.88;;;;;;;;;;5009228;28;20124;-63
2021/12/08 02:49:59;;;;;;;12.85;3.90;;;;;;;;;;5008669;28;20117;-64
2021/12/08 02:52:27;;;;;;;13.27;3.30;;;;;;;;;;5008694;28;20123;-64
2021/12/08 02:54:54;;;;;;;13.18;3.17;;;;;;;;;;5008209;28;20179;-61
2021/12/08 02:57:26;;;;;;;12.27;3.80;;;;;;;;;;5008083;28;20509;-62
2021/12/08 02:59:53;;;;;;;13.25;3.22;;;;;;;;;;5009255;28;20037;-61
2021/12/08 03:02:20;;;;;;;20.38;3.60;;;;;;;;;;5008323;28;20040;-61
2021/12/08 03:04:48;;;;;;;15.38;4.20;;;;;;;;;;5008398;28;20107;-62
2021/12/08 03:07:15;;;;;;;14.25;4.00;;;;;;;;;;5003594;28;20049;-61
2021/12/08 03:09:42;;;;;;;12.77;3.83;;;;;;;;;;5004326;28;20037;-61
2021/12/08 03:12:09;;;;;;;12.75;4.00;;;;;;;;;;5009713;28;20018;-62
2021/12/08 03:14:37;;;;;;;10.25;3.58;;;;;;;;;;5009147;28;20038;-61
2021/12/08 03:17:06;;;;;;;13.15;3.38;;;;;;;;;;5009087;28;20148;-63
2021/12/08 03:19:33;;;;;;;10.68;3.30;;;;;;;;;;5009590;28;20018;-60
2021/12/08 03:22:08;;;;;;;10.50;3.38;;;;;;;;;;5009535;28;20038;-62
2021/12/08 03:24:38;;;;;;;9.00;3.40;;;;;;;;;;5007538;28;20038;-62
2021/12/08 03:27:10;;;;;;;11.82;3.30;;;;;;;;;;5008160;28;20481;-62
2021/12/08 03:32:15;;;;;;;11.80;3.53;;;;;;;;;;5008500;28;19924;-61
2021/12/08 03:34:49;;;;;;;12.47;3.47;;;;;;;;;;5007030;28;20041;-61
2021/12/08 03:37:17;;;;;;;13.18;3.90;;;;;;;;;;5007614;28;20269;-62
2021/12/08 03:39:44;;;;;;;12.27;3.35;;;;;;;;;;5007313;28;20018;-62
2021/12/08 03:42:11;;;;;;;12.98;3.70;;;;;;;;;;5008484;28;20072;-61
2021/12/08 03:44:39;;;;;;;8.85;3.03;;;;;;;;;;5007308;28;20038;-62
2021/12/08 03:47:15;;;;;;;9.68;3.08;;;;;;;;;;4994702;28;20026;-62
2021/12/08 03:49:43;;;;;;;12.23;3.33;;;;;;;;;;4988571;28;20114;-61
2021/12/08 03:52:10;;;;;;;10.13;2.78;;;;;;;;;;4988618;28;20029;-61
2021/12/08 03:54:37;;;;;;;8.98;2.75;;;;;;;;;;4989408;28;20650;-61
2021/12/08 03:57:06;;;;;;;11.07;2.80;;;;;;;;;;4989727;28;20030;-61
2021/12/08 03:59:33;;;;;;;7.78;2.80;;;;;;;;;;4989324;28;20033;-62
2021/12/08 04:02:00;;;;;;;6.00;2.35;;;;;;;;;;4989238;28;20101;-62
2021/12/08 04:04:29;;;;;;;9.98;3.47;;;;;;;;;;4989419;28;20053;-61
2021/12/08 04:07:02;;;;;;;8.40;2.80;;;;;;;;;;4989320;28;20035;-61
2021/12/08 04:09:38;;;;;;;8.65;3.08;;;;;;;;;;4989256;28;20129;-62
2021/12/08 04:12:05;;;;;;;6.45;2.65;;;;;;;;;;4989486;28;20033;-61
2021/12/08 04:14:34;;;;;;;6.80;2.35;;;;;;;;;;4988993;28;20018;-62
2021/12/08 04:17:01;;;;;;;10.30;3.17;;;;;;;;;;4989291;28;20414;-61
2021/12/08 04:19:29;;;;;;;9.40;2.60;;;;;;;;;;4989292;28;20478;-62
2021/12/08 04:21:58;;;;;;;9.52;2.80;;;;;;;;;;4988603;28;20022;-62
2021/12/08 04:24:25;;;;;;;9.25;2.70;;;;;;;;;;4988380;28;20034;-62
2021/12/08 04:27:04;;;;;;;7.35;2.72;;;;;;;;;;4988885;28;20104;-61
2021/12/08 04:29:33;;;;;;;6.70;2.38;;;;;;;;;;5003555;28;20053;-61
2021/12/08 04:32:01;;;;;;;6.45;2.55;;;;;;;;;;4989185;28;20026;-62
2021/12/08 04:34:30;;;;;;;8.70;2.75;;;;;;;;;;4988437;28;20033;-61
2021/12/08 04:37:01;;;;;;;8.30;2.60;;;;;;;;;;4988683;28;20045;-62
2021/12/08 04:39:39;;;;;;;6.25;2.45;;;;;;;;;;4989030;28;20085;-62
2021/12/08 04:42:11;;;;;;;7.22;2.25;;;;;;;;;;4993404;28;20029;-61
2021/12/08 04:44:54;;;;;;;6.53;2.20;;;;;;;;;;5007227;28;20060;-61
2021/12/08 05:03:45;;;;;;;6.20;2.30;;;;;;;;;;5007546;28;20092;-62
2021/12/08 05:06:22;;;;;;;7.43;2.28;;;;;;;;;;5006861;28;20473;-62
2021/12/08 05:08:52;;;;;;;6.63;2.03;;;;;;;;;;5007747;28;20030;-63
2021/12/08 05:11:25;;;;;;;6.03;2.05;;;;;;;;;;5005743;28;20033;-62
2021/12/08 05:13:54;;;;;;;6.53;2.75;;;;;;;;;;5007496;28;20018;-62
2021/12/08 05:16:23;;;;;;;5.63;1.77;;;;;;;;;;5007495;28;20021;-62
2021/12/08 05:18:50;;;;;;;7.57;2.13;;;;;;;;;;5007422;28;20024;-62
2021/12/08 05:21:36;;;;;;;8.07;1.90;;;;;;;;;;5007115;28;20025;-62
2021/12/08 05:24:14;;;;;;;5.53;2.10;;;;;;;;;;5007593;28;20401;-62
2021/12/08 05:26:44;;;;;;;5.95;2.42;;;;;;;;;;5006871;28;20601;-63
2021/12/08 05:29:14;;;;;;;6.63;2.03;;;;;;;;;;5007390;28;20050;-62
2021/12/08 05:31:41;;;;;;;4.55;2.28;;;;;;;;;;5006935;28;20030;-62
2021/12/08 05:34:08;;;;;;;7.10;2.22;;;;;;;;;;5007451;28;20067;-62
2021/12/08 05:36:36;;;;;;;5.50;2.13;;;;;;;;;;5007112;28;20033;-62
2021/12/08 05:39:07;;;;;;;5.60;2.15;;;;;;;;;;5007208;28;20025;-62
2021/12/08 05:41:35;;;;;;;5.03;1.85;;;;;;;;;;5006823;28;20032;-62
2021/12/08 05:44:03;;;;;;;4.32;1.88;;;;;;;;;;5007144;28;20029;-62
2021/12/08 05:46:31;;;;;;;4.25;1.80;;;;;;;;;;5006798;28;20486;-62
2021/12/08 05:48:59;;;;;;;4.28;1.98;;;;;;;;;;5007800;28;20390;-62
2021/12/08 05:51:32;;;;;;;4.82;1.83;;;;;;;;;;5006900;28;20107;-62
2021/12/08 05:54:04;;;;;;;5.70;1.90;;;;;;;;;;5007000;28;20724;-62
2021/12/08 05:56:31;;;;;;;4.55;1.60;;;;;;;;;;5007239;28;20123;-61
2021/12/08 05:59:01;;;;;;;3.20;1.60;;;;;;;;;;5007178;28;20076;-63
2021/12/08 06:01:31;;;;;;;5.38;1.92;;;;;;;;;;5007234;28;20109;-62
2021/12/08 06:03:58;;;;;;;4.38;1.70;;;;;;;;;;5006947;28;20026;-62
2021/12/08 06:06:26;;;;;;;4.50;2.10;;;;;;;;;;5006975;28;20030;-62
2021/12/08 06:08:53;;;;;;;3.53;1.60;;;;;;;;;;5007085;28;20080;-62
2021/12/08 06:11:21;;;;;;;3.50;1.40;;;;;;;;;;5010138;28;20037;-62
2021/12/08 06:13:49;;;;;;;3.63;1.60;;;;;;;;;;5010689;28;20021;-62
2021/12/08 06:16:18;;;;;;;3.63;1.80;;;;;;;;;;5011012;28;20061;-62
2021/12/08 06:18:47;;;;;;;3.95;1.90;;;;;;;;;;5009893;28;20030;-62
2021/12/08 06:21:17;;;;;;;4.75;2.00;;;;;;;;;;5010319;28;20034;-62
2021/12/08 06:23:44;;;;;;;5.00;1.58;;;;;;;;;;5010175;28;20103;-62
2021/12/08 06:26:13;;;;;;;4.45;1.80;;;;;;;;;;5010193;28;20045;-61
2021/12/08 06:28:40;;;;;;;5.32;1.85;;;;;;;;;;5010290;28;20559;-62
2021/12/08 06:31:09;;;;;;;6.10;1.73;;;;;;;;;;5010562;28;20032;-62
2021/12/08 06:33:36;;;;;;;4.45;1.65;;;;;;;;;;5010050;28;20105;-62
2021/12/08 06:36:06;;;;;;;3.53;1.60;;;;;;;;;;5010451;28;20026;-62
2021/12/08 06:38:34;;;;;;;4.78;1.80;;;;;;;;;;5009920;28;20509;-62
2021/12/08 06:41:11;;;;;;;3.65;1.40;;;;;;;;;;5010286;28;20093;-62
2021/12/08 06:43:41;;;;;;;4.60;1.55;;;;;;;;;;5009946;28;20385;-61
2021/12/08 06:46:08;;;;;;;4.22;1.63;;;;;;;;;;5010163;28;20113;-62
2021/12/08 06:48:39;;;;;;;3.05;1.48;;;;;;;;;;5009805;28;20052;-62
2021/12/08 06:51:11;;;;;;;3.78;1.55;;;;;;;;;;5010130;28;20101;-62
2021/12/08 06:53:39;;;;;;;4.00;1.73;;;;;;;;;;5009915;28;20026;-62
2021/12/08 06:56:12;;;;;;;3.80;1.70;;;;;;;;;;5010086;28;20049;-62
2021/12/08 06:58:41;;;;;;;4.45;1.70;;;;;;;;;;5010515;28;20508;-61
2021/12/08 07:01:17;;;;;;;4.07;1.80;;;;;;;;;;5009347;28;20109;-61
2021/12/08 07:04:29;;;;;;;3.63;1.63;;;;;;;;;;5008857;28;20088;-62
2021/12/08 07:07:15;;;;;;;4.10;1.48;;;;;;;;;;5009682;28;20122;-61
2021/12/08 07:09:42;;;;;;;4.25;1.55;;;;;;;;;;5009429;28;20040;-62
2021/12/08 07:12:13;;;;;;;3.33;1.45;;;;;;;;;;5009555;28;20477;-62
2021/12/08 07:14:44;;;;;;;3.70;1.47;;;;;;;;;;5009415;28;20634;-61
2021/12/08 07:17:14;;;;;;;3.35;1.35;;;;;;;;;;5009156;28;20030;-61
2021/12/08 07:19:49;;;;;;;3.83;1.20;;;;;;;;;;5009762;28;20442;-61
2021/12/08 07:22:25;;;;;;;4.43;1.77;;;;;;;;;;5008998;28;20044;-62
2021/12/08 07:24:53;;;;;;;3.35;1.48;;;;;;;;;;5008841;28;20617;-62
2021/12/08 07:27:26;;;;;;;5.85;1.50;;;;;;;;;;5008844;28;20436;-61
2021/12/08 07:29:54;;;;;;;3.65;1.63;;;;;;;;;;5009474;28;20029;-61
2021/12/08 07:32:26;;;;;;;2.90;1.42;;;;;;;;;;5008495;28;20021;-62
2021/12/08 07:34:54;;;;;;;2.28;1.20;;;;;;;;;;5009434;28;20513;-62
2021/12/08 07:37:23;;;;;;;3.25;1.40;;;;;;;;;;5008743;28;20424;-62
2021/12/08 07:39:55;;;;;;;4.10;1.60;;;;;;;;;;5008855;28;20137;-61
2021/12/08 07:42:26;;;;;;;3.47;1.50;;;;;;;;;;5007681;28;20018;-62
2021/12/08 07:44:54;;;;;;;2.40;1.25;;;;;;;;;;5008332;28;20133;-62
2021/12/08 07:47:22;;;;;;;3.65;1.60;;;;;;;;;;5008928;28;20020;-62
2021/12/08 07:49:52;;;;;;;4.03;1.58;;;;;;;;;;5009215;28;20060;-62
2021/12/08 07:52:19;;;;;;;4.93;1.70;;;;;;;;;;5008082;28;20034;-62
2021/12/08 07:54:46;;;;;;;2.72;1.42;;;;;;;;;;5009564;28;20543;-61
2021/12/08 07:57:18;;;;;;;3.10;1.33;;;;;;;;;;5008071;28;20546;-61
2021/12/08 07:59:47;;;;;;;5.23;1.70;;;;;;;;;;5008893;28;20108;-62
2021/12/08 08:02:14;;;;;;;2.47;1.38;;;;;;;;;;5008441;28;20050;-62
2021/12/08 08:04:43;;;;;;;4.60;1.73;;;;;;;;;;5008509;28;20042;-61
2021/12/08 08:07:11;;;;;;;3.63;1.20;;;;;;;;;;5008744;28;20022;-62
2021/12/08 08:09:42;;;;;;;3.25;1.45;;;;;;;;;;5008440;28;20137;-63
2021/12/08 08:12:13;;;;;;;4.68;1.38;;;;;;;;;;5008137;28;20520;-61
2021/12/08 08:14:48;;;;;;;2.67;1.30;;;;;;;;;;5009023;28;20432;-62
2021/12/08 08:17:17;;;;;;;3.22;1.25;;;;;;;;;;5008082;28;20520;-62
2021/12/08 08:19:45;;;;;;;3.83;1.52;;;;;;;;;;5008243;28;20022;-62
2021/12/08 08:22:15;;;;;;;3.22;1.48;;;;;;;;;;5008719;28;20109;-62
2021/12/08 08:24:42;;;;;;;3.05;1.20;;;;;;;;;;5007497;28;20547;-62
2021/12/08 08:27:10;;;;;;;3.00;1.15;;;;;;;;;;5008658;28;20028;-62
2021/12/08 08:29:38;;;;;;;3.00;1.55;;;;;;;;;;5007985;28;20034;-62
2021/12/08 08:32:16;;;;;;;2.47;1.30;;;;;;;;;;5007940;28;20033;-62
2021/12/08 08:34:45;;;;;;;4.32;1.55;;;;;;;;;;5008063;28;20022;-63
2021/12/08 08:37:13;;;;;;;2.30;1.20;;;;;;;;;;5007586;28;20040;-62
2021/12/08 08:39:50;;;;;;;2.78;1.27;;;;;;;;;;5008053;28;20052;-62
2021/12/08 08:42:20;;;;;;;2.70;1.00;;;;;;;;;;5008393;28;20030;-62
2021/12/08 08:44:50;;;;;;;2.22;1.13;;;;;;;;;;5007247;28;20083;-62
2021/12/08 08:47:43;;;;;;;3.35;1.38;;;;;;;;;;5008612;28;20437;-62
2021/12/08 08:50:12;;;;;;;2.35;1.02;;;;;;;;;;5006528;28;20092;-62
2021/12/08 08:52:46;;;;;;;2.47;1.17;;;;;;;;;;5006566;28;20068;-62
2021/12/08 08:55:19;;;;;;;1.80;1.08;;;;;;;;;;5008143;28;20029;-62
2021/12/08 08:57:46;;;;;;;2.22;1.15;;;;;;;;;;5008021;28;20672;-62
2021/12/08 09:00:33;;;;;;;1.63;1.00;;;;;;;;;;5006306;28;20666;-62
2021/12/08 09:03:02;;;;;;;2.65;1.10;;;;;;;;;;5008142;28;20052;-62
2021/12/08 09:05:32;;;;;;;2.03;1.10;;;;;;;;;;5006779;28;20069;-62
2021/12/08 09:07:59;;;;;;;2.42;1.20;;;;;;;;;;5008314;28;20083;-62
2021/12/08 09:10:30;;;;;;;2.33;1.10;;;;;;;;;;5022390;28;20022;-62
2021/12/08 09:13:00;;;;;;;3.75;1.30;;;;;;;;;;5007239;28;20034;-62
2021/12/08 09:15:33;;;;;;;3.45;1.50;;;;;;;;;;5007603;28;20038;-62
2021/12/08 09:18:06;;;;;;;2.80;1.20;;;;;;;;;;5007677;28;20018;-61
2021/12/08 09:20:36;;;;;;;1.92;1.20;;;;;;;;;;5007773;28;20033;-61
2021/12/08 09:23:14;;;;;;;2.15;0.93;;;;;;;;;;5007952;28;20382;-61
2021/12/08 09:25:42;;;;;;;2.55;1.30;;;;;;;;;;5006616;28;20034;-62
2021/12/08 09:28:18;;;;;;;2.83;1.10;;;;;;;;;;5007722;28;20141;-62
2021/12/08 09:30:48;;;;;;;3.05;1.30;;;;;;;;;;5007522;28;20503;-61
2021/12/08 09:33:26;;;;;;;1.83;0.93;;;;;;;;;;5007294;28;20042;-62
2021/12/08 09:35:55;;;;;;;3.53;1.10;;;;;;;;;;5007761;28;20453;-61
2021/12/08 09:38:25;;;;;;;2.53;1.25;;;;;;;;;;5007266;28;20030;-61
2021/12/08 09:40:57;;;;;;;2.20;1.00;;;;;;;;;;5007452;28;20030;-62
2021/12/08 09:43:24;;;;;;;;;;;;;;;;;;5008329;28;20076;-62
2021/12/08 09:45:54;;;;;;;2.85;1.02;;;;;;;;;;5010623;28;19917;-62
2021/12/08 09:48:26;;;;;;;3.28;1.08;;;;;;;;;;5011442;28;20026;-62
2021/12/08 09:50:55;;;;;;;2.63;1.02;;;;;;;;;;5011391;28;20025;-62
2021/12/08 09:53:22;;;;;;;3.38;1.15;;;;;;;;;;5010353;28;20053;-62
2021/12/08 09:55:50;;;;;;;3.30;1.55;;;;;;;;;;5011439;28;20482;-62
2021/12/08 09:58:18;;;;;;;1.60;0.93;;;;;;;;;;5010472;28;20021;-62
2021/12/08 10:00:46;;;;;;;3.58;1.40;;;;;;;;;;5011307;28;20033;-62
2021/12/08 10:03:14;;;;;;;2.35;1.17;;;;;;;;;;5010531;28;20032;-61
2021/12/08 10:05:41;;;;;;;2.17;1.15;;;;;;;;;;5010638;28;20092;-62
2021/12/08 10:08:09;;;;;;;1.90;1.33;;;;;;;;;;5011041;28;20048;-61
2021/12/08 10:10:38;;;;;;;3.05;1.10;;;;;;;;;;5010533;28;20050;-62
2021/12/08 10:13:05;;;;;;;2.65;0.95;;;;;;;;;;5010695;28;20034;-62
2021/12/08 10:15:32;;;;;;;2.10;1.10;;;;;;;;;;5010676;28;20037;-62
2021/12/08 10:18:00;;;;;;;2.17;1.10;;;;;;;;;;5010078;28;20117;-62
2021/12/08 10:20:35;;;;;;;2.25;1.02;;;;;;;;;;5011565;28;20033;-62
2021/12/08 10:23:20;;;;;;;1.55;0.93;;;;;;;;;;5010108;28;20132;-61
2021/12/08 10:25:51;;;;;;;2.05;0.93;;;;;;;;;;5010257;28;20588;-62
2021/12/08 10:28:23;;;;;;;2.03;0.98;;;;;;;;;;5010579;28;20116;-61
2021/12/08 10:30:55;;;;;;;3.60;1.30;;;;;;;;;;5010253;28;20049;-62
2021/12/08 10:33:46;;;;;;;1.77;1.15;;;;;;;;;;5009880;28;20029;-61
2021/12/08 10:36:33;;;;;;;1.65;0.88;;;;;;;;;;5009632;28;20068;-62
2021/12/08 10:39:03;;;;;;;1.65;1.00;;;;;;;;;;5009687;28;20030;-60
2021/12/08 10:41:43;;;;;;;2.95;1.02;;;;;;;;;;5010051;28;20565;-62
2021/12/08 10:44:10;;;;;;;2.35;1.13;;;;;;;;;;5009000;28;20420;-61
2021/12/08 10:46:40;;;;;;;2.08;0.80;;;;;;;;;;5009647;28;20034;-63
2021/12/08 10:54:47;;;;;;;1.17;0.70;;;;;;;;;;5009273;28;20045;-62
2021/12/08 10:57:23;;;;;;;2.35;1.10;;;;;;;;;;5009622;28;20477;-62
2021/12/08 10:59:55;;;;;;;2.08;1.10;;;;;;;;;;5009879;28;20033;-62
2021/12/08 11:02:21;;;;;;;;;;;;;;;;;;5008977;28;20032;-62
2021/12/08 11:04:48;;;;;;;2.97;1.10;;;;;;;;;;5009834;28;19991;-62
2021/12/08 11:07:17;;;;;;;1.27;0.80;;;;;;;;;;5009219;28;20026;-63
2021/12/08 11:09:44;;;;;;;2.63;0.80;;;;;;;;;;5009675;28;20114;-62
2021/12/08 11:12:11;;;;;;;2.60;1.10;;;;;;;;;;5009892;28;20485;-62
2021/12/08 11:14:45;;;;;;;2.42;0.75;;;;;;;;;;5009183;28;20052;-62
2021/12/08 11:17:29;;;;;;;1.70;0.85;;;;;;;;;;5009130;28;20108;-62
2021/12/08 11:20:15;;;;;;;2.25;0.93;;;;;;;;;;5009641;28;20539;-62
2021/12/08 11:22:44;;;;;;;1.88;0.88;;;;;;;;;;5009130;28;20040;-63
2021/12/08 11:25:23;;;;;;;2.13;1.05;;;;;;;;;;5009190;28;20042;-62
2021/12/08 11:27:50;;;;;;;2.90;1.00;;;;;;;;;;5007866;28;20038;-63
2021/12/08 11:30:28;;;;;;;1.75;0.90;;;;;;;;;;5008876;28;20026;-62
2021/12/08 11:33:18;;;;;;;2.55;1.25;;;;;;;;;;5009578;28;20516;-63
2021/12/08 11:35:47;;;;;;;1.85;0.80;;;;;;;;;;5008562;28;20509;-62
2021/12/08 11:38:14;;;;;;;2.97;0.88;;;;;;;;;;5008792;28;20018;-62
2021/12/08 11:40:41;;;;;;;1.30;0.82;;;;;;;;;;5009543;28;20073;-62
2021/12/08 11:43:15;;;;;;;1.48;0.88;;;;;;;;;;5008122;28;20033;-62
2021/12/08 11:45:43;;;;;;;1.80;0.90;;;;;;;;;;5009264;28;20037;-62
2021/12/08 11:48:26;;;;;;;4.38;1.15;;;;;;;;;;5008373;28;20179;-62
2021/12/08 11:51:15;;;;;;;2.25;1.20;;;;;;;;;;5008440;28;20026;-62
2021/12/08 11:53:42;;;;;;;2.38;0.75;;;;;;;;;;5008746;28;20109;-63
2021/12/08 11:56:29;;;;;;;3.20;1.15;;;;;;;;;;5008354;28;20030;-63
2021/12/08 11:58:56;;;;;;;2.50;0.80;;;;;;;;;;5007747;28;20037;-62
2021/12/08 12:01:24;;;;;;;2.22;0.85;;;;;;;;;;5009256;28;20142;-62
2021/12/08 12:03:51;;;;;;;2.17;0.70;;;;;;;;;;5008167;28;20039;-62
2021/12/08 12:06:18;;;;;;;0.80;0.60;;;;;;;;;;5008480;28;20086;-61
2021/12/08 12:08:47;;;;;;;0.98;0.70;;;;;;;;;;5007738;28;20045;-62
2021/12/08 12:11:14;;;;;;;2.45;1.08;;;;;;;;;;5008358;28;20072;-61
2021/12/08 12:13:41;;;;;;;1.75;0.98;;;;;;;;;;5008419;28;20775;-61
2021/12/08 12:16:08;;;;;;;2.00;0.90;;;;;;;;;;5008256;28;20030;-61
2021/12/08 12:18:35;;;;;;;2.15;1.05;;;;;;;;;;5007848;28;20049;-61
2021/12/08 12:21:20;;;;;;;1.88;0.82;;;;;;;;;;5007442;28;20053;-62
2021/12/08 12:23:59;;;;;;;1.58;0.73;;;;;;;;;;5007465;28;20034;-62
2021/12/08 12:26:39;;;;;;;1.42;0.80;;;;;;;;;;5008376;28;20689;-62
2021/12/08 12:29:15;;;;;;;1.63;0.93;;;;;;;;;;5008065;28;20045;-62
2021/12/08 12:31:45;;;;;;;2.35;0.85;;;;;;;;;;5008075;28;20065;-63
2021/12/08 12:34:26;;;;;;;2.50;1.00;;;;;;;;;;5007839;28;20029;-63
2021/12/08 12:36:54;;;;;;;2.38;0.88;;;;;;;;;;5008506;28;20045;-62
2021/12/08 12:39:31;;;;;;;2.13;0.90;;;;;;;;;;5007236;28;20037;-62
2021/12/08 12:42:13;;;;;;;1.60;0.75;;;;;;;;;;5008832;28;20033;-63
2021/12/08 12:44:42;;;;;;;2.50;1.00;;;;;;;;;;5007510;28;20045;-62
2021/12/08 12:47:24;;;;;;;2.70;0.90;;;;;;;;;;5007700;28;20401;-63
2021/12/08 12:50:09;;;;;;;1.85;0.70;;;;;;;;;;5008209;28;20033;-62
2021/12/08 12:52:42;;;;;;;1.90;0.80;;;;;;;;;;5008305;28;20021;-63
2021/12/08 12:55:12;;;;;;;1.70;0.88;;;;;;;;;;5007127;28;20540;-62
2021/12/08 12:57:58;;;;;;;1.75;0.70;;;;;;;;;;5008758;28;20021;-63
2021/12/08 13:00:27;;;;;;;1.48;0.75;;;;;;;;;;5007631;28;20693;-62
2021/12/08 13:02:54;;;;;;;1.48;0.60;;;;;;;;;;5007834;28;20026;-62
2021/12/08 13:05:21;;;;;;;1.25;0.80;;;;;;;;;;5007823;28;20037;-62
2021/12/08 13:08:00;;;;;;;1.35;0.90;;;;;;;;;;5007459;28;20081;-62
2021/12/08 13:10:39;;;;;;;1.52;0.70;;;;;;;;;;4998205;28;20026;-61
2021/12/08 13:13:12;;;;;;;3.00;0.82;;;;;;;;;;4997976;28;20105;-62
2021/12/08 13:15:41;;;;;;;1.42;0.60;;;;;;;;;;4997135;28;20148;-62
2021/12/08 13:18:15;;;;;;;1.95;0.80;;;;;;;;;;4999169;28;20033;-61
2021/12/08 13:20:47;;;;;;;1.45;0.85;;;;;;;;;;5008572;28;20052;-61
2021/12/08 13:23:15;;;;;;;2.38;0.80;;;;;;;;;;5003935;28;20049;-61
2021/12/08 13:28:31;;;;;;;2.03;0.70;;;;;;;;;;5006027;28;20046;-61
2021/12/08 13:31:08;;;;;;;2.45;1.00;;;;;;;;;;5004206;28;20034;-61
2021/12/08 13:33:37;;;;;;;1.17;0.70;;;;;;;;;;5007777;28;20037;-62
2021/12/08 13:36:25;;;;;;;1.92;0.98;;;;;;;;;;5000876;28;20034;-62
2021/12/08 13:38:55;;;;;;;1.42;0.75;;;;;;;;;;5005935;28;20021;-62
2021/12/08 13:41:22;;;;;;;0.90;0.65;;;;;;;;;;5003965;28;20029;-62
2021/12/08 13:43:50;;;;;;;4.63;1.10;;;;;;;;;;5002858;28;20030;-62
2021/12/08 13:46:36;;;;;;;1.63;0.80;;;;;;;;;;5006929;28;20037;-62
2021/12/08 13:49:16;;;;;;;2.00;0.82;;;;;;;;;;5003750;28;20027;-62
2021/12/08 13:51:44;;;;;;;2.63;1.10;;;;;;;;;;5021706;28;20037;-62
2021/12/08 13:54:50;;;;;;;3.13;0.90;;;;;;;;;;5006851;28;20073;-62
2021/12/08 13:57:30;;;;;;;2.88;0.52;;;;;;;;;;4969494;28;20030;-62
2021/12/08 14:00:01;;;;;;;2.00;0.90;;;;;;;;;;4968893;28;20581;-62
2021/12/08 14:02:34;;;;;;;3.07;0.70;;;;;;;;;;4990081;28;20130;-62
2021/12/08 14:05:04;;;;;;;2.83;1.00;;;;;;;;;;5009006;28;20042;-62
2021/12/08 14:07:35;;;;;;;3.13;0.77;;;;;;;;;;4996098;28;20034;-62
2021/12/08 14:10:05;;;;;;;4.00;1.15;;;;;;;;;;4998924;28;20061;-62
2021/12/08 14:12:51;;;;;;;5.40;0.95;;;;;;;;;;5004032;28;20026;-63
2021/12/08 14:15:23;;;;;;;2.63;0.93;;;;;;;;;;5005078;28;20577;-62
2021/12/08 14:17:50;;;;;;;5.20;0.88;;;;;;;;;;5005311;28;20123;-62
2021/12/08 14:20:27;;;;;;;3.83;0.90;;;;;;;;;;5004246;28;20061;-63
2021/12/08 14:22:55;;;;;;;3.38;1.00;;;;;;;;;;5012034;28;20203;-62
2021/12/08 14:25:51;;;;;;;6.97;1.40;;;;;;;;;;5001913;28;20037;-63
2021/12/08 14:28:28;;;;;;;5.50;1.30;;;;;;;;;;4998730;28;20493;-63
2021/12/08 14:30:59;;;;;;;6.38;1.05;;;;;;;;;;5002314;28;20670;-64
2021/12/08 14:33:28;;;;;;;3.60;1.60;;;;;;;;;;4998572;28;20470;-63
2021/12/08 14:35:59;;;;;;;6.32;1.42;;;;;;;;;;4996924;28;20553;-65
2021/12/08 14:38:27;;;;;;;7.47;1.60;;;;;;;;;;5010233;28;20040;-63
2021/12/08 14:40:54;;;;;;;6.80;1.00;;;;;;;;;;4997684;28;20356;-64
2021/12/08 14:43:25;;;;;;;6.57;1.63;;;;;;;;;;5006430;28;20426;-63
2021/12/08 14:45:52;;;;;;;9.25;0.90;;;;;;;;;;4996321;28;20046;-64
2021/12/08 14:48:19;;;;;;;3.22;1.30;;;;;;;;;;5009550;28;20022;-62
2021/12/08 14:50:47;;;;;;;7.22;1.30;;;;;;;;;;4998266;28;20050;-63
2021/12/08 14:53:17;;;;;;;7.75;1.60;;;;;;;;;;4996673;28;20027;-63
2021/12/08 14:55:44;;;;;;;4.72;1.40;;;;;;;;;;5004457;28;20037;-63
2021/12/08 14:58:14;;;;;;;3.03;1.30;;;;;;;;;;5002122;28;20105;-63
2021/12/08 15:00:42;;;;;;;4.50;1.40;;;;;;;;;;4999599;28;20053;-62
2021/12/08 15:03:14;;;;;;;4.38;1.30;;;;;;;;;;5002223;28;20638;-62
2021/12/08 15:05:45;;;;;;;4.85;1.80;;;;;;;;;;4997785;28;20038;-62
2021/12/08 15:08:14;;;;;;;8.20;1.67;;;;;;;;;;5004023;28;20129;-62
2021/12/08 15:10:41;;;;;;;5.70;1.33;;;;;;;;;;5002084;28;20026;-62
2021/12/08 15:13:15;;;;;;;6.88;1.33;;;;;;;;;;5002583;28;20018;-62
2021/12/08 15:15:46;;;;;;;3.80;1.23;;;;;;;;;;5002011;28;20034;-62
2021/12/08 15:18:16;;;;;;;3.45;1.48;;;;;;;;;;4996202;28;20037;-63
2021/12/08 15:20:45;;;;;;;2.47;1.00;;;;;;;;;;5004124;28;20034;-62
2021/12/08 15:23:24;;;;;;;7.40;1.30;;;;;;;;;;5000082;28;20052;-63
2021/12/08 15:25:51;;;;;;;5.53;1.17;;;;;;;;;;5000783;28;20053;-63
2021/12/08 15:28:29;;;;;;;2.97;1.10;;;;;;;;;;4995826;28;20561;-63
2021/12/08 15:30:58;;;;;;;8.27;1.42;;;;;;;;;;4997468;28;20042;-63
2021/12/08 15:33:26;;;;;;;5.57;1.40;;;;;;;;;;4997621;28;20157;-63
2021/12/08 15:35:53;;;;;;;3.15;1.02;;;;;;;;;;5004553;28;20048;-62
2021/12/08 15:38:21;;;;;;;4.00;1.45;;;;;;;;;;4990679;28;20238;-62
2021/12/08 15:40:53;;;;;;;2.90;0.90;;;;;;;;;;4997183;28;20022;-63
2021/12/08 15:43:20;;;;;;;;;;;;;;;;;;4997795;28;20386;-63
2021/12/08 15:45:48;;;;;;;4.90;1.10;;;;;;;;;;4994207;28;19952;-63
2021/12/08 15:48:22;;;;;;;1.98;1.15;;;;;;;;;;4988318;28;20696;-63